Time;durP1;ratioP1;P1;durP2;ratioP2;P2;SDS_P1;SDS_P2;PMS_P1;PMS_P2;Temp;Humidity;BMP_temperature;BMP_pressure;BME280_temperature;BME280_humidity;BME280_pressure;Samples;Min_cycle;Max_cycle;Signal;HPM_P1;HPM_P2
2022/09/17 00:01:35;;;;;;;12.95;3.17;;;23.50;96.70;;;;;;5086961;28;20636;-76
2022/09/17 00:04:04;;;;;;;7.15;2.50;;;23.60;96.70;;;;;;5094993;28;20046;-76
2022/09/17 00:06:34;;;;;;;11.45;3.45;;;23.60;96.70;;;;;;5096500;27;20035;-77
2022/09/17 00:09:03;;;;;;;6.63;2.72;;;23.60;96.70;;;;;;5096906;28;20152;-77
2022/09/17 00:11:34;;;;;;;9.45;3.53;;;23.70;96.70;;;;;;5099015;28;20614;-76
2022/09/17 00:14:04;;;;;;;8.27;2.90;;;23.80;96.70;;;;;;5095594;28;20745;-76
2022/09/17 00:16:36;;;;;;;9.00;2.72;;;23.80;96.70;;;;;;5097505;28;20629;-76
2022/09/17 00:19:07;;;;;;;8.55;3.08;;;23.80;96.70;;;;;;5079717;28;20047;-77
2022/09/17 00:21:35;;;;;;;6.20;2.53;;;23.80;96.70;;;;;;5098392;28;20062;-76
2022/09/17 00:24:05;;;;;;;9.98;2.80;;;23.90;96.70;;;;;;5087439;28;20070;-76
2022/09/17 00:26:35;;;;;;;7.45;2.53;;;23.90;96.70;;;;;;5094450;28;20097;-76
2022/09/17 00:29:04;;;;;;;8.45;2.92;;;23.90;96.70;;;;;;5096540;28;20696;-76
2022/09/17 00:31:35;;;;;;;9.18;3.28;;;23.90;96.70;;;;;;5095208;28;20062;-76
2022/09/17 00:34:04;;;;;;;8.18;2.67;;;24.00;96.70;;;;;;5081119;28;20058;-77
2022/09/17 00:36:35;;;;;;;8.23;2.70;;;24.10;96.70;;;;;;5093043;28;20485;-76
2022/09/17 00:39:05;;;;;;;7.70;3.00;;;24.20;96.70;;;;;;5098705;28;20048;-76
2022/09/17 00:41:36;;;;;;;6.85;2.88;;;24.20;96.70;;;;;;5098633;28;20051;-77
2022/09/17 00:44:38;;;;;;;8.52;3.08;;;24.20;96.70;;;;;;5099586;28;20469;-76
2022/09/17 00:47:14;;;;;;;9.35;3.15;;;24.20;96.70;;;;;;5095258;28;20105;-77
2022/09/17 00:49:43;;;;;;;6.60;3.40;;;24.20;96.70;;;;;;5093181;28;20068;-77
2022/09/17 00:52:15;;;;;;;7.53;2.67;;;24.10;96.70;;;;;;5095589;28;20127;-76
2022/09/17 00:54:51;;;;;;;6.28;3.42;;;24.10;96.70;;;;;;5075367;28;20433;-76
2022/09/17 00:57:19;;;;;;;8.15;3.10;;;24.00;96.70;;;;;;5096406;28;20441;-76
2022/09/17 00:59:48;;;;;;;7.47;2.70;;;23.70;96.70;;;;;;5092023;28;20048;-76
2022/09/17 01:02:18;;;;;;;6.28;2.60;;;23.60;96.70;;;;;;5081321;28;20421;-77
2022/09/17 01:04:47;;;;;;;7.80;2.72;;;23.50;96.70;;;;;;5096737;28;20055;-76
2022/09/17 01:07:32;;;;;;;9.50;2.88;;;23.40;96.70;;;;;;5094233;28;20441;-76
2022/09/17 01:10:11;;;;;;;7.10;2.80;;;23.50;96.70;;;;;;5094339;28;20075;-77
2022/09/17 01:12:55;;;;;;;10.95;2.95;;;23.60;96.70;;;;;;5100558;28;20048;-76
2022/09/17 01:15:31;;;;;;;6.90;2.88;;;23.50;96.70;;;;;;5098047;28;20051;-76
2022/09/17 01:18:21;;;;;;;7.57;2.97;;;23.30;96.70;;;;;;5094721;28;20071;-77
2022/09/17 01:21:25;;;;;;;9.13;2.97;;;23.20;96.70;;;;;;5096803;28;20121;-76
2022/09/17 01:24:24;;;;;;;7.15;2.90;;;23.30;96.70;;;;;;5099046;27;20196;-77
2022/09/17 01:27:25;;;;;;;7.97;3.15;;;23.20;96.70;;;;;;5094730;28;20048;-77
2022/09/17 01:30:08;;;;;;;12.05;3.50;;;23.10;96.70;;;;;;5095886;28;20083;-76
2022/09/17 01:32:42;;;;;;;10.52;3.50;;;23.00;96.70;;;;;;5091846;28;20594;-77
2022/09/17 01:35:18;;;;;;;6.43;3.28;;;23.00;96.70;;;;;;5096520;28;20146;-76
2022/09/17 01:37:54;;;;;;;;;;;23.00;96.70;;;;;;5098289;28;20060;-77
2022/09/17 01:40:27;;;;;;;12.75;3.85;;;22.90;96.70;;;;;;5095268;28;19927;-76
2022/09/17 01:43:00;;;;;;;12.75;3.33;;;23.00;96.70;;;;;;5102800;28;20104;-76
2022/09/17 01:45:34;;;;;;;7.47;3.42;;;22.90;96.70;;;;;;5090828;28;20044;-76
2022/09/17 01:48:11;;;;;;;7.57;3.10;;;22.90;96.70;;;;;;5098781;28;20047;-77
2022/09/17 01:50:46;;;;;;;8.85;3.72;;;22.90;96.70;;;;;;5079887;28;20156;-77
2022/09/17 01:53:17;;;;;;;9.65;3.22;;;22.80;96.70;;;;;;5095053;28;20048;-77
2022/09/17 01:55:48;;;;;;;7.75;3.47;;;22.80;96.70;;;;;;5094969;28;20035;-77
2022/09/17 01:58:20;;;;;;;5.72;2.78;;;22.70;96.70;;;;;;5093365;28;20104;-77
2022/09/17 02:00:51;;;;;;;9.50;3.13;;;22.70;96.70;;;;;;5096575;28;20044;-76
2022/09/17 02:03:25;;;;;;;5.93;2.65;;;22.70;96.70;;;;;;5093151;28;20070;-76
2022/09/17 02:05:57;;;;;;;11.18;3.28;;;22.70;96.70;;;;;;5094469;28;20055;-76
2022/09/17 02:08:28;;;;;;;7.97;3.40;;;22.70;96.70;;;;;;5094670;28;20074;-77
2022/09/17 02:11:00;;;;;;;8.20;3.47;;;22.70;96.70;;;;;;5098529;28;20043;-77
2022/09/17 02:13:34;;;;;;;7.93;3.33;;;22.60;96.70;;;;;;5076671;28;20063;-76
2022/09/17 02:16:06;;;;;;;8.00;3.08;;;22.60;96.70;;;;;;5098221;28;20046;-77
2022/09/17 02:18:42;;;;;;;6.32;3.00;;;22.70;96.70;;;;;;5073970;28;20653;-76
2022/09/17 02:21:14;;;;;;;6.65;3.05;;;22.60;96.70;;;;;;5096004;28;22687;-76
2022/09/17 02:23:49;;;;;;;6.75;2.78;;;22.60;96.70;;;;;;5099890;28;20050;-76
2022/09/17 02:26:20;;;;;;;9.02;3.45;;;22.30;96.70;;;;;;5093785;28;20059;-76
2022/09/17 02:28:53;;;;;;;6.65;2.95;;;22.30;96.70;;;;;;5100320;28;20636;-76
2022/09/17 02:31:22;;;;;;;8.70;3.22;;;22.50;96.70;;;;;;5096317;28;20067;-77
2022/09/17 02:33:56;;;;;;;8.50;3.17;;;22.60;96.70;;;;;;5091878;28;20048;-76
2022/09/17 02:36:24;;;;;;;7.32;3.05;;;22.40;96.70;;;;;;5076009;28;20523;-76
2022/09/17 02:38:57;;;;;;;7.55;3.10;;;22.60;96.70;;;;;;5097573;28;20055;-76
2022/09/17 02:41:35;;;;;;;7.53;3.33;;;22.60;96.70;;;;;;5094966;28;20690;-76
2022/09/17 02:44:13;;;;;;;6.82;2.53;;;22.40;96.70;;;;;;5100576;28;20039;-77
2022/09/17 02:46:56;;;;;;;8.10;3.53;;;22.50;96.70;;;;;;5100251;28;20040;-76
2022/09/17 02:49:39;;;;;;;6.40;3.00;;;22.40;96.70;;;;;;5088785;28;20043;-77
2022/09/17 02:52:15;;;;;;;6.50;2.78;;;22.40;96.70;;;;;;5096795;28;20063;-76
2022/09/17 02:54:51;;;;;;;6.00;2.35;;;22.40;96.70;;;;;;5095085;28;20044;-76
2022/09/17 02:57:25;;;;;;;5.68;2.67;;;22.40;96.70;;;;;;5098000;28;20178;-77
2022/09/17 02:59:57;;;;;;;7.07;3.35;;;22.50;96.70;;;;;;5102418;28;20051;-76
2022/09/17 03:02:31;;;;;;;6.65;3.50;;;22.40;96.70;;;;;;5096960;28;20448;-76
2022/09/17 03:05:00;;;;;;;7.95;3.15;;;22.40;96.70;;;;;;5097074;28;20099;-76
2022/09/17 03:07:28;;;;;;;7.60;2.75;;;22.40;96.70;;;;;;5097076;28;20043;-77
2022/09/17 03:09:56;;;;;;;8.85;3.08;;;22.30;96.70;;;;;;5101732;28;20468;-76
2022/09/17 03:12:26;;;;;;;8.45;3.10;;;22.10;96.70;;;;;;5098840;28;20044;-77
2022/09/17 03:14:53;;;;;;;10.77;2.97;;;22.10;96.70;;;;;;5098093;28;20774;-77
2022/09/17 03:17:21;;;;;;;5.03;2.65;;;22.20;96.70;;;;;;5102754;28;20039;-77
2022/09/17 03:19:49;;;;;;;7.43;2.88;;;22.30;96.70;;;;;;5098505;28;20048;-76
2022/09/17 03:22:18;;;;;;;5.70;2.72;;;22.30;96.70;;;;;;5111187;27;20088;-76
2022/09/17 03:24:46;;;;;;;5.43;2.95;;;22.30;96.70;;;;;;5082942;28;20599;-76
2022/09/17 03:27:14;;;;;;;7.10;2.38;;;22.30;96.70;;;;;;5100682;28;20075;-76
2022/09/17 03:29:42;;;;;;;5.45;2.50;;;22.20;96.70;;;;;;5093864;28;20083;-76
2022/09/17 03:32:10;;;;;;;5.78;2.65;;;22.30;96.70;;;;;;5093006;28;20508;-76
2022/09/17 03:34:38;;;;;;;8.30;2.85;;;22.40;96.70;;;;;;5093342;28;20400;-76
2022/09/17 03:37:06;;;;;;;6.55;2.67;;;22.40;96.70;;;;;;5098266;27;20047;-76
2022/09/17 03:39:35;;;;;;;5.18;2.50;;;22.40;96.70;;;;;;5092784;28;20496;-77
2022/09/17 03:42:04;;;;;;;6.97;2.72;;;22.40;96.70;;;;;;5096632;28;20052;-76
2022/09/17 03:44:31;;;;;;;6.13;2.50;;;22.30;96.70;;;;;;5094467;28;20054;-76
2022/09/17 03:46:59;;;;;;;7.32;3.10;;;22.30;96.70;;;;;;5099519;28;20055;-76
2022/09/17 03:49:27;;;;;;;7.82;2.70;;;22.40;96.70;;;;;;5099496;28;20048;-76
2022/09/17 03:51:58;;;;;;;9.50;2.80;;;22.40;96.70;;;;;;5099067;28;20047;-78
2022/09/17 03:54:26;;;;;;;4.80;2.30;;;22.30;96.70;;;;;;5093788;28;20078;-77
2022/09/17 03:56:55;;;;;;;7.18;2.72;;;22.30;96.70;;;;;;5096767;28;20632;-77
2022/09/17 03:59:23;;;;;;;5.03;2.88;;;22.30;96.70;;;;;;5093679;28;20052;-77
2022/09/17 04:01:51;;;;;;;11.48;3.22;;;22.20;96.70;;;;;;5101303;28;20377;-77
2022/09/17 04:04:19;;;;;;;4.57;2.70;;;22.10;96.70;;;;;;5095361;28;20048;-77
2022/09/17 04:06:48;;;;;;;7.70;3.00;;;22.10;96.70;;;;;;5101351;28;20065;-77
2022/09/17 04:09:16;;;;;;;7.80;2.78;;;22.20;96.70;;;;;;5093389;28;20546;-77
2022/09/17 04:11:44;;;;;;;8.65;3.17;;;22.10;96.70;;;;;;5095507;28;20032;-77
2022/09/17 04:14:13;;;;;;;7.43;2.78;;;21.90;96.70;;;;;;5098222;28;20043;-77
2022/09/17 04:16:41;;;;;;;5.25;2.70;;;22.00;96.70;;;;;;5096066;28;20717;-77
2022/09/17 04:19:09;;;;;;;7.53;2.83;;;22.10;96.70;;;;;;5099054;27;20420;-78
2022/09/17 04:21:37;;;;;;;8.75;2.80;;;22.20;96.70;;;;;;5099630;28;20093;-77
2022/09/17 04:24:05;;;;;;;7.20;2.88;;;22.10;96.70;;;;;;5101552;28;20044;-77
2022/09/17 04:26:33;;;;;;;6.45;2.72;;;21.90;96.70;;;;;;5097079;28;20124;-77
2022/09/17 04:29:01;;;;;;;8.52;2.78;;;21.90;96.70;;;;;;5096607;28;20764;-77
2022/09/17 04:31:30;;;;;;;5.53;2.78;;;21.80;96.70;;;;;;5098551;28;20123;-77
2022/09/17 04:33:58;;;;;;;7.57;2.97;;;21.80;96.70;;;;;;5092676;28;20225;-77
2022/09/17 04:36:26;;;;;;;6.95;2.88;;;21.80;96.70;;;;;;5098758;28;20122;-77
2022/09/17 04:38:54;;;;;;;7.13;2.72;;;21.90;96.70;;;;;;5100220;27;20036;-77
2022/09/17 04:41:22;;;;;;;5.68;2.90;;;21.80;96.70;;;;;;5104029;28;20079;-77
2022/09/17 04:43:50;;;;;;;9.38;3.13;;;22.00;96.70;;;;;;5094238;28;20044;-78
2022/09/17 04:46:18;;;;;;;6.55;2.72;;;22.00;96.70;;;;;;5103887;28;20096;-78
2022/09/17 04:48:47;;;;;;;8.82;3.17;;;22.00;96.70;;;;;;5093412;28;20078;-77
2022/09/17 04:51:15;;;;;;;7.68;2.92;;;22.10;96.70;;;;;;5094431;28;20153;-78
2022/09/17 04:53:44;;;;;;;6.25;2.63;;;22.10;96.70;;;;;;5098415;28;20044;-77
2022/09/17 04:56:12;;;;;;;5.85;2.45;;;22.20;96.70;;;;;;5103684;28;20562;-77
2022/09/17 04:58:40;;;;;;;7.72;2.95;;;22.10;96.70;;;;;;5098263;28;20463;-78
2022/09/17 05:01:08;;;;;;;7.25;2.70;;;22.20;96.70;;;;;;5098329;28;20031;-77
2022/09/17 05:03:36;;;;;;;6.57;2.70;;;22.10;96.70;;;;;;5077592;28;20051;-77
2022/09/17 05:06:05;;;;;;;8.50;2.92;;;22.10;96.70;;;;;;5096989;28;20126;-78
2022/09/17 05:08:33;;;;;;;7.38;2.92;;;22.00;96.70;;;;;;5098672;28;20567;-77
2022/09/17 05:11:01;;;;;;;7.63;2.90;;;22.10;96.70;;;;;;5090109;28;20040;-77
2022/09/17 05:13:29;;;;;;;6.32;2.80;;;22.10;96.70;;;;;;5091385;28;20044;-78
2022/09/17 05:15:57;;;;;;;6.55;2.80;;;22.00;96.70;;;;;;5099226;28;20562;-78
2022/09/17 05:18:25;;;;;;;7.72;3.00;;;21.90;96.70;;;;;;5098767;28;20100;-78
2022/09/17 05:20:53;;;;;;;5.63;2.92;;;21.70;96.70;;;;;;5092609;28;20459;-77
2022/09/17 05:23:22;;;;;;;6.82;2.70;;;21.70;96.70;;;;;;5095780;28;20112;-77
2022/09/17 05:25:51;;;;;;;9.90;3.38;;;21.60;96.70;;;;;;5096868;28;20040;-77
2022/09/17 05:28:20;;;;;;;11.20;3.40;;;21.70;96.70;;;;;;5097051;28;20412;-78
2022/09/17 05:30:48;;;;;;;8.93;3.58;;;21.50;96.70;;;;;;5094435;28;20040;-77
2022/09/17 05:33:15;;;;;;;9.65;3.42;;;21.60;96.70;;;;;;5100526;28;20032;-77
2022/09/17 05:35:44;;;;;;;10.00;3.22;;;21.80;96.70;;;;;;5091591;28;20139;-77
2022/09/17 05:38:12;;;;;;;10.10;3.45;;;21.90;96.70;;;;;;5093067;28;20036;-78
2022/09/17 05:40:42;;;;;;;7.65;3.28;;;21.80;96.70;;;;;;5096172;28;20043;-77
2022/09/17 05:43:10;;;;;;;9.00;3.83;;;21.90;96.70;;;;;;5099131;28;20512;-77
2022/09/17 05:45:38;;;;;;;10.02;3.60;;;22.10;96.70;;;;;;5093806;28;20122;-77
2022/09/17 05:48:09;;;;;;;6.38;3.55;;;22.20;96.70;;;;;;5094362;28;20047;-77
2022/09/17 05:50:37;;;;;;;8.25;3.55;;;22.20;96.70;;;;;;5093196;28;20114;-77
2022/09/17 05:53:07;;;;;;;8.93;3.90;;;22.30;96.70;;;;;;5096567;27;20134;-79
2022/09/17 05:55:36;;;;;;;8.80;4.35;;;22.20;96.70;;;;;;5096773;28;20052;-78
2022/09/17 05:58:13;;;;;;;9.55;3.80;;;22.30;96.70;;;;;;5094728;28;20044;-77
2022/09/17 06:00:42;;;;;;;10.80;4.05;;;22.30;96.70;;;;;;5099233;28;20063;-77
2022/09/17 06:03:12;;;;;;;11.02;4.13;;;22.30;96.70;;;;;;5098801;28;20050;-78
2022/09/17 06:05:40;;;;;;;8.80;4.32;;;22.30;96.70;;;;;;5097361;28;20777;-77
2022/09/17 06:08:09;;;;;;;7.38;4.25;;;22.40;96.70;;;;;;5097324;28;20039;-78
2022/09/17 06:10:38;;;;;;;10.48;4.07;;;22.40;96.70;;;;;;5088562;28;20040;-78
2022/09/17 06:13:06;;;;;;;10.20;4.05;;;22.40;96.70;;;;;;5092894;28;20051;-77
2022/09/17 06:15:36;;;;;;;13.35;5.15;;;22.30;96.70;;;;;;5093369;28;20060;-79
2022/09/17 06:18:04;;;;;;;8.75;3.90;;;22.40;96.70;;;;;;5095432;28;20043;-77
2022/09/17 06:20:32;;;;;;;8.57;3.83;;;22.40;96.70;;;;;;5079685;28;20054;-77
2022/09/17 06:23:00;;;;;;;11.57;4.07;;;22.30;96.70;;;;;;5092799;28;20039;-77
2022/09/17 06:25:28;;;;;;;13.30;3.97;;;22.40;96.70;;;;;;5097147;28;20055;-77
2022/09/17 06:27:56;;;;;;;10.63;3.28;;;22.60;96.70;;;;;;5093807;28;20070;-77
2022/09/17 06:30:25;;;;;;;12.65;3.33;;;22.50;96.70;;;;;;5098662;28;20073;-78
2022/09/17 06:32:54;;;;;;;11.60;3.72;;;22.70;96.70;;;;;;5094128;28;20039;-78
2022/09/17 06:35:22;;;;;;;8.27;3.20;;;22.80;96.70;;;;;;5100631;28;20043;-77
2022/09/17 06:37:51;;;;;;;8.13;3.45;;;22.80;96.70;;;;;;5091355;28;20043;-77
2022/09/17 06:40:22;;;;;;;11.82;3.55;;;22.80;96.70;;;;;;5093215;28;20040;-77
2022/09/17 06:42:55;;;;;;;8.70;4.22;;;22.70;96.70;;;;;;5095500;28;20412;-77
2022/09/17 06:45:23;;;;;;;11.98;5.22;;;22.80;96.70;;;;;;5098060;28;20075;-78
2022/09/17 06:47:52;;;;;;;11.23;4.72;;;22.70;96.70;;;;;;5093694;28;20094;-77
2022/09/17 06:50:22;;;;;;;12.45;4.90;;;22.70;96.70;;;;;;5092559;28;20051;-77
2022/09/17 06:52:50;;;;;;;11.07;5.10;;;22.70;96.70;;;;;;5092902;28;20051;-77
2022/09/17 06:55:19;;;;;;;11.48;5.18;;;22.80;96.70;;;;;;5093224;28;20040;-78
2022/09/17 06:57:47;;;;;;;13.10;5.25;;;22.80;96.70;;;;;;5096929;28;20047;-77
2022/09/17 07:00:15;;;;;;;17.13;4.88;;;22.90;96.70;;;;;;5097461;28;20028;-77
2022/09/17 07:02:53;;;;;;;15.30;3.92;;;23.00;96.70;;;;;;5096104;28;20043;-77
2022/09/17 07:05:23;;;;;;;13.35;6.53;;;23.20;96.70;;;;;;5101522;28;20082;-82
2022/09/17 07:07:52;;;;;;;17.75;7.07;;;23.30;96.70;;;;;;5095351;28;20051;-80
2022/09/17 07:10:25;;;;;;;13.10;6.15;;;23.40;96.70;;;;;;5094547;28;20039;-79
2022/09/17 07:12:53;;;;;;;16.55;4.07;;;23.40;96.70;;;;;;5092185;28;20066;-78
2022/09/17 07:15:22;;;;;;;12.13;3.97;;;23.40;96.70;;;;;;5091088;28;20143;-77
2022/09/17 07:17:50;;;;;;;13.43;4.20;;;23.60;96.70;;;;;;5092327;28;20055;-77
2022/09/17 07:20:19;;;;;;;21.38;4.03;;;23.70;96.70;;;;;;5101962;28;20068;-78
2022/09/17 07:22:56;;;;;;;13.73;3.58;;;23.80;96.70;;;;;;5100201;28;20442;-80
2022/09/17 07:25:28;;;;;;;15.98;3.22;;;24.00;96.70;;;;;;5097573;28;20048;-79
2022/09/17 07:27:56;;;;;;;18.40;4.22;;;24.00;96.70;;;;;;5097808;27;20074;-80
2022/09/17 07:30:24;;;;;;;14.13;4.28;;;24.10;96.70;;;;;;5104409;27;20051;-78
2022/09/17 07:32:53;;;;;;;14.07;3.45;;;24.00;96.70;;;;;;5102774;27;20070;-79
2022/09/17 07:35:21;;;;;;;12.02;3.58;;;24.00;96.70;;;;;;5104734;27;20096;-78
2022/09/17 07:37:49;;;;;;;9.52;3.40;;;24.00;96.70;;;;;;5099242;27;20039;-80
2022/09/17 07:40:19;;;;;;;10.27;3.35;;;24.00;96.70;;;;;;5091727;28;20075;-80
2022/09/17 07:42:47;;;;;;;10.15;2.72;;;23.90;96.70;;;;;;5102512;28;20214;-81
2022/09/17 07:45:20;;;;;;;11.82;4.20;;;23.90;96.70;;;;;;5097273;28;20048;-81
2022/09/17 07:47:49;;;;;;;12.13;3.45;;;23.90;96.70;;;;;;5104935;27;20063;-79
2022/09/17 07:50:22;;;;;;;11.82;3.38;;;24.00;96.70;;;;;;5102347;27;20044;-80
2022/09/17 07:52:50;;;;;;;17.48;4.05;;;24.10;96.70;;;;;;5104186;27;20419;-78
2022/09/17 07:55:22;;;;;;;13.52;3.65;;;24.20;96.70;;;;;;5095258;28;20043;-79
2022/09/17 07:57:51;;;;;;;11.75;2.95;;;24.10;96.70;;;;;;5098936;27;20070;-78
2022/09/17 08:00:20;;;;;;;10.00;3.13;;;24.10;96.70;;;;;;5105608;27;20047;-79
2022/09/17 08:02:53;;;;;;;13.23;3.97;;;24.10;96.70;;;;;;5107070;27;20058;-79
2022/09/17 08:05:23;;;;;;;15.45;5.00;;;24.20;96.70;;;;;;5097273;27;20040;-78
2022/09/17 08:07:52;;;;;;;11.60;3.45;;;24.20;96.70;;;;;;5098598;28;20054;-79
2022/09/17 08:10:23;;;;;;;11.65;3.47;;;24.20;96.70;;;;;;5094428;28;20604;-79
2022/09/17 08:12:55;;;;;;;13.20;3.75;;;24.20;96.70;;;;;;5098380;28;20051;-79
2022/09/17 08:15:24;;;;;;;12.07;3.92;;;24.20;96.70;;;;;;5097729;28;20538;-78
2022/09/17 08:17:53;;;;;;;16.85;6.25;;;24.10;96.70;;;;;;5097716;27;20535;-78
2022/09/17 08:20:23;;;;;;;12.27;4.72;;;23.90;96.70;;;;;;5096569;27;20051;-79
2022/09/17 08:22:58;;;;;;;13.05;4.35;;;23.50;96.70;;;;;;5100744;27;20047;-78
2022/09/17 08:25:28;;;;;;;8.27;2.88;;;22.70;96.70;;;;;;5101437;28;20463;-79
2022/09/17 08:27:56;;;;;;;10.85;2.40;;;21.70;96.70;;;;;;5098040;28;20123;-77
2022/09/17 08:30:24;;;;;;;6.55;1.40;;;20.70;96.70;;;;;;5095141;28;20493;-77
2022/09/17 08:32:58;;;;;;;6.93;1.70;;;19.70;96.70;;;;;;5098262;28;21466;-78
2022/09/17 08:35:28;;;;;;;6.25;1.02;;;19.00;96.70;;;;;;5082403;28;20123;-79
2022/09/17 08:38:08;;;;;;;5.53;0.80;;;17.70;96.70;;;;;;5093564;28;20123;-80
2022/09/17 08:41:11;;;;;;;1.02;0.45;;;16.80;96.70;;;;;;5026212;28;20681;-77
2022/09/17 08:43:45;;;;;;;3.78;0.45;;;16.30;96.70;;;;;;5015531;28;20052;-78
2022/09/17 08:46:13;;;;;;;4.85;0.65;;;16.10;96.70;;;;;;5037991;28;20617;-77
2022/09/17 08:48:47;;;;;;;4.35;0.88;;;16.20;96.70;;;;;;5036927;28;20500;-78
2022/09/17 08:51:31;;;;;;;1.98;0.30;;;16.30;96.70;;;;;;5033472;28;20127;-78
2022/09/17 08:54:18;;;;;;;2.90;0.50;;;16.50;96.70;;;;;;5031435;28;20049;-78
2022/09/17 08:57:00;;;;;;;2.28;0.45;;;16.90;96.70;;;;;;5034609;28;20150;-78
2022/09/17 08:59:37;;;;;;;5.40;0.90;;;17.00;96.70;;;;;;5021129;28;20045;-77
2022/09/17 09:02:12;;;;;;;;;;;17.10;96.70;;;;;;5020735;28;20091;-77
2022/09/17 09:04:57;;;;;;;2.83;0.45;;;17.20;96.70;;;;;;5041735;28;20020;-77
2022/09/17 09:07:30;;;;;;;0.90;0.20;;;17.20;96.70;;;;;;5023554;28;20063;-77
2022/09/17 09:10:07;;;;;;;2.00;0.13;;;17.10;96.70;;;;;;5024335;28;20091;-78
2022/09/17 09:12:38;;;;;;;0.20;0.08;;;17.20;96.70;;;;;;5054980;28;20136;-77
2022/09/17 09:15:16;;;;;;;1.30;0.10;;;17.30;96.70;;;;;;5078058;28;20109;-77
2022/09/17 09:17:46;;;;;;;0.88;0.10;;;17.30;96.70;;;;;;5085925;28;20167;-77
2022/09/17 09:20:17;;;;;;;2.20;0.10;;;17.20;96.70;;;;;;5104315;27;20075;-77
2022/09/17 09:22:47;;;;;;;1.02;0.10;;;17.40;96.70;;;;;;5099687;27;20734;-77
2022/09/17 09:25:22;;;;;;;2.17;0.10;;;17.40;96.70;;;;;;5081856;28;20040;-78
2022/09/17 09:28:01;;;;;;;0.20;0.00;;;17.50;96.70;;;;;;5099345;28;20040;-80
2022/09/17 09:30:39;;;;;;;1.55;0.10;;;17.50;96.70;;;;;;5092650;28;20083;-79
2022/09/17 09:33:13;;;;;;;1.25;0.00;;;17.40;96.70;;;;;;5098844;28;20051;-78
2022/09/17 09:35:43;;;;;;;0.35;0.10;;;17.40;96.70;;;;;;5095915;28;20055;-79
2022/09/17 09:38:20;;;;;;;0.10;0.00;;;17.50;96.70;;;;;;5095655;28;20075;-78
2022/09/17 09:40:54;;;;;;;2.13;0.10;;;17.60;96.70;;;;;;5101312;28;20155;-78
2022/09/17 09:43:35;;;;;;;1.67;0.00;;;17.50;96.70;;;;;;5098084;28;20050;-79
2022/09/17 09:46:40;;;;;;;0.10;0.00;;;17.60;96.70;;;;;;5065128;28;20087;-78
2022/09/17 09:49:20;;;;;;;0.10;0.10;;;17.80;96.70;;;;;;5046836;28;20052;-81
2022/09/17 09:51:59;;;;;;;1.55;0.10;;;17.70;96.70;;;;;;5039229;28;20094;-81
2022/09/17 09:54:41;;;;;;;0.77;0.25;;;18.10;96.70;;;;;;5070385;28;20052;-80
2022/09/17 09:57:13;;;;;;;1.30;0.10;;;18.20;96.70;;;;;;5060285;28;20055;-80
2022/09/17 09:59:42;;;;;;;0.20;0.10;;;18.40;96.70;;;;;;5068014;28;20532;-79
2022/09/17 10:02:10;;;;;;;1.00;0.03;;;18.60;96.70;;;;;;5052690;28;20048;-80
2022/09/17 10:04:38;;;;;;;0.10;0.00;;;18.90;96.70;;;;;;5072719;27;20756;-80
2022/09/17 10:07:08;;;;;;;0.75;0.10;;;19.00;96.70;;;;;;5094445;27;20039;-79
2022/09/17 10:09:37;;;;;;;0.10;0.00;;;19.10;96.70;;;;;;5074793;28;20074;-79
2022/09/17 10:12:16;;;;;;;0.20;0.00;;;19.20;96.70;;;;;;5095031;28;20048;-81
2022/09/17 10:14:46;;;;;;;1.35;0.15;;;19.30;96.70;;;;;;5097654;28;20035;-80
2022/09/17 10:17:20;;;;;;;1.70;0.20;;;19.30;96.70;;;;;;5094716;27;20095;-79
2022/09/17 10:20:13;;;;;;;0.22;0.10;;;19.20;96.70;;;;;;5097325;28;20039;-80
2022/09/17 10:22:47;;;;;;;0.13;0.00;;;19.10;96.70;;;;;;5098904;28;20115;-80
2022/09/17 10:25:28;;;;;;;0.38;0.10;;;19.10;96.70;;;;;;5097945;28;20104;-81
2022/09/17 10:27:57;;;;;;;2.97;0.20;;;19.10;96.70;;;;;;5093491;28;20500;-82
2022/09/17 10:30:28;;;;;;;0.57;0.20;;;19.00;96.70;;;;;;5100687;28;20108;-81
2022/09/17 10:33:18;;;;;;;2.25;0.20;;;19.20;96.70;;;;;;5104487;28;20059;-81
2022/09/17 10:36:03;;;;;;;0.75;0.17;;;19.20;96.70;;;;;;5104205;28;20040;-83
2022/09/17 10:38:36;;;;;;;3.05;0.47;;;19.00;96.70;;;;;;5104758;28;20097;-82
2022/09/17 10:41:16;;;;;;;0.40;0.00;;;18.90;96.70;;;;;;5081777;28;20055;-84
2022/09/17 10:43:45;;;;;;;0.43;0.10;;;18.90;96.70;;;;;;5107026;28;20047;-84
2022/09/17 10:46:20;;;;;;;0.45;0.10;;;18.80;96.70;;;;;;5102296;28;20059;-80
2022/09/17 10:49:07;;;;;;;1.40;0.10;;;18.80;96.70;;;;;;5081856;28;20096;-82
2022/09/17 10:51:37;;;;;;;1.58;0.20;;;18.70;96.70;;;;;;5094710;28;20048;-81
2022/09/17 10:54:24;;;;;;;1.55;0.20;;;18.60;96.70;;;;;;5095207;28;20098;-81
2022/09/17 10:56:56;;;;;;;1.75;0.00;;;18.50;96.70;;;;;;5096197;28;20410;-79
2022/09/17 10:59:53;;;;;;;0.52;0.10;;;18.50;96.70;;;;;;5097128;28;20113;-81
2022/09/17 11:02:53;;;;;;;0.30;0.00;;;18.30;96.70;;;;;;5101414;28;20032;-81
2022/09/17 11:05:38;;;;;;;2.60;0.10;;;18.20;96.70;;;;;;5105329;28;20124;-81
2022/09/17 11:08:15;;;;;;;1.27;0.10;;;18.20;96.70;;;;;;5106162;27;20050;-82
2022/09/17 11:10:53;;;;;;;0.40;0.00;;;18.30;96.70;;;;;;5085696;28;20067;-82
2022/09/17 11:13:32;;;;;;;0.10;0.00;;;18.20;96.70;;;;;;5096784;28;20051;-83
2022/09/17 11:16:18;;;;;;;0.90;0.10;;;18.30;96.70;;;;;;5102588;28;20114;-80
2022/09/17 11:18:56;;;;;;;0.50;0.00;;;18.50;96.70;;;;;;5103578;28;20131;-82
2022/09/17 11:21:41;;;;;;;0.25;0.10;;;18.40;96.70;;;;;;5097459;28;20143;-80
2022/09/17 11:24:47;;;;;;;0.45;0.00;;;18.40;96.70;;;;;;5098719;28;20413;-82
2022/09/17 11:27:34;;;;;;;0.22;0.00;;;18.50;96.70;;;;;;5094530;28;20043;-78
2022/09/17 11:30:09;;;;;;;0.85;0.08;;;18.60;96.70;;;;;;5101161;28;20050;-82
2022/09/17 11:33:09;;;;;;;1.42;0.05;;;19.00;96.70;;;;;;5103218;28;20047;-85
2022/09/17 11:35:44;;;;;;;0.68;0.30;;;19.30;96.70;;;;;;5103289;27;20048;-85
2022/09/17 11:38:19;;;;;;;1.80;0.10;;;19.40;96.70;;;;;;5089681;28;20094;-82
2022/09/17 11:40:51;;;;;;;0.10;0.00;;;19.40;96.70;;;;;;5103328;28;20719;-81
2022/09/17 11:43:25;;;;;;;0.13;0.10;;;19.60;96.70;;;;;;5081163;28;20063;-81
2022/09/17 11:45:59;;;;;;;0.10;0.00;;;19.60;96.70;;;;;;5099249;28;20105;-81
2022/09/17 11:48:36;;;;;;;0.10;0.00;;;19.70;96.70;;;;;;5102345;28;20509;-81
2022/09/17 11:51:28;;;;;;;2.00;0.10;;;19.60;96.70;;;;;;5087590;28;20548;-80
2022/09/17 11:54:06;;;;;;;0.40;0.08;;;19.70;96.70;;;;;;5090329;28;20481;-77
2022/09/17 11:56:40;;;;;;;0.75;0.00;;;19.70;96.70;;;;;;5096822;28;20481;-78
2022/09/17 11:59:20;;;;;;;1.40;0.00;;;20.20;96.70;;;;;;5098362;28;20109;-77
2022/09/17 12:01:56;;;;;;;0.52;0.00;;;20.40;96.70;;;;;;5101133;28;20043;-78
2022/09/17 12:04:39;;;;;;;0.35;0.00;;;20.60;96.70;;;;;;5098564;28;20047;-79
2022/09/17 12:07:21;;;;;;;0.00;0.00;;;20.90;96.70;;;;;;5104878;27;20469;-80
2022/09/17 12:09:54;;;;;;;0.52;0.00;;;21.00;96.70;;;;;;5098968;28;20089;-78
2022/09/17 12:12:24;;;;;;;0.00;0.00;;;21.20;96.70;;;;;;5093160;28;20036;-79
2022/09/17 12:15:17;;;;;;;0.10;0.00;;;21.00;96.70;;;;;;5097441;28;20039;-79
2022/09/17 12:17:53;;;;;;;0.20;0.00;;;21.40;96.70;;;;;;5094613;28;20047;-80
2022/09/17 12:20:45;;;;;;;0.25;0.10;;;21.60;96.70;;;;;;5096469;28;20684;-79
2022/09/17 12:23:19;;;;;;;0.20;0.20;;;21.70;96.70;;;;;;5103287;28;20048;-80
2022/09/17 12:25:52;;;;;;;1.73;0.20;;;21.80;96.70;;;;;;5078963;28;20562;-79
2022/09/17 12:28:26;;;;;;;0.90;0.20;;;21.70;96.70;;;;;;5093634;28;20056;-79
2022/09/17 12:31:03;;;;;;;0.20;0.08;;;21.80;96.70;;;;;;5100114;28;20584;-79
2022/09/17 12:33:39;;;;;;;0.32;0.10;;;22.10;96.70;;;;;;5095990;28;20047;-79
2022/09/17 12:36:26;;;;;;;0.32;0.08;;;22.00;96.70;;;;;;5100414;28;20140;-79
2022/09/17 12:39:29;;;;;;;0.75;0.10;;;21.70;96.70;;;;;;5077562;28;20082;-80
2022/09/17 12:42:07;;;;;;;0.20;0.08;;;21.60;96.70;;;;;;5083405;28;20062;-79
2022/09/17 12:45:03;;;;;;;0.10;0.10;;;21.60;96.70;;;;;;5097765;28;20509;-78
2022/09/17 12:47:48;;;;;;;0.10;0.08;;;21.50;96.70;;;;;;5096490;28;20074;-77
2022/09/17 12:50:29;;;;;;;0.75;0.08;;;21.50;96.70;;;;;;5099617;28;20039;-78
2022/09/17 12:53:13;;;;;;;0.10;0.10;;;21.60;96.70;;;;;;5092356;28;20039;-78
2022/09/17 12:56:10;;;;;;;0.15;0.05;;;21.40;96.70;;;;;;5099886;28;20492;-78
2022/09/17 12:59:14;;;;;;;1.05;0.50;;;21.10;96.70;;;;;;5096948;28;20078;-78
2022/09/17 13:01:49;;;;;;;1.60;0.20;;;20.70;96.70;;;;;;5092866;28;20043;-79
2022/09/17 13:04:31;;;;;;;0.57;0.10;;;20.70;96.70;;;;;;5094548;28;20562;-78
2022/09/17 13:07:53;;;;;;;1.10;0.10;;;20.70;96.70;;;;;;5091287;28;20047;-78
2022/09/17 13:10:45;;;;;;;1.00;0.10;;;21.20;96.70;;;;;;5095306;28;20044;-78
2022/09/17 13:13:28;;;;;;;0.75;0.10;;;21.70;96.70;;;;;;5094092;28;20059;-79
2022/09/17 13:16:07;;;;;;;1.30;0.10;;;21.90;96.70;;;;;;5095897;28;20123;-78
2022/09/17 13:18:50;;;;;;;0.30;0.10;;;22.10;96.70;;;;;;5096641;28;20412;-78
2022/09/17 13:21:44;;;;;;;0.40;0.10;;;22.10;96.70;;;;;;5099108;28;20537;-78